HAZ1608 ZPLJ-ZUUU
Flight info
| Callsign | HAZ1608 |
|---|---|
| Flight time | 1h 5m |
| Altitude | 35100 |
| Route | SB21D SB W162 KAKMI/K0869S1040 W144 IGNAK IGNAK2E |
| Aircraft | A320/M-SDE3FGHIRWY/LB1 |
Departure
| Time | 2026-04-28 11:55 |
|---|---|
| Airport | Lijiang Sanyi International Airport (ZPLJ) |
Arrival
| Time | 2026-04-28 13:01 |
|---|---|
| Airport | Chengdu Shuangliu International Airport (ZUUU) |
| Time | Latitude | Longitude | Altitude | Speed | Heading |
|---|---|---|---|---|---|
| 2026-04-28 11:43 | 26.67145 | 100.24574 | 7409 ft | 0 kts | 106° |
| 2026-04-28 11:48 | 26.67146 | 100.24568 | 7409 ft | 2 kts | 78° |
| 2026-04-28 11:49 | 26.67142 | 100.24554 | 7409 ft | 1 kts | 88° |
| 2026-04-28 11:49 | 26.67146 | 100.24538 | 7409 ft | 2 kts | 110° |
| 2026-04-28 11:49 | 26.67150 | 100.24522 | 7409 ft | 2 kts | 105° |
| 2026-04-28 11:49 | 26.67154 | 100.24506 | 7409 ft | 2 kts | 106° |
| 2026-04-28 11:50 | 26.67159 | 100.24490 | 7409 ft | 2 kts | 107° |
| 2026-04-28 11:50 | 26.67168 | 100.24477 | 7409 ft | 2 kts | 153° |
| 2026-04-28 11:50 | 26.67182 | 100.24474 | 7409 ft | 1 kts | 190° |
| 2026-04-28 11:50 | 26.67188 | 100.24476 | 7409 ft | 1 kts | 201° |
| 2026-04-28 11:51 | 26.67191 | 100.24477 | 7409 ft | 0 kts | 198° |
| 2026-04-28 11:52 | 26.67190 | 100.24477 | 7409 ft | 1 kts | 196° |
| 2026-04-28 11:52 | 26.67147 | 100.24464 | 7409 ft | 12 kts | 194° |
| 2026-04-28 11:52 | 26.67029 | 100.24428 | 7409 ft | 19 kts | 195° |
| 2026-04-28 11:52 | 26.66898 | 100.24384 | 7409 ft | 19 kts | 197° |
| 2026-04-28 11:53 | 26.66770 | 100.24340 | 7410 ft | 19 kts | 197° |
| 2026-04-28 11:53 | 26.66623 | 100.24289 | 7410 ft | 23 kts | 197° |
| 2026-04-28 11:53 | 26.66472 | 100.24239 | 7411 ft | 22 kts | 197° |
| 2026-04-28 11:53 | 26.66385 | 100.24178 | 7411 ft | 8 kts | 300° |
| 2026-04-28 11:54 | 26.66400 | 100.24130 | 7411 ft | 7 kts | 285° |
| 2026-04-28 11:54 | 26.66417 | 100.24059 | 7411 ft | 11 kts | 284° |
| 2026-04-28 11:54 | 26.66430 | 100.24040 | 7411 ft | 0 kts | 26° |
| 2026-04-28 11:54 | 26.66431 | 100.24040 | 7411 ft | 3 kts | 20° |
| 2026-04-28 11:55 | 26.66705 | 100.24134 | 7410 ft | 75 kts | 17° |
| 2026-04-28 11:55 | 26.67416 | 100.24375 | 7409 ft | 136 kts | 17° |
| 2026-04-28 11:55 | 26.68499 | 100.24737 | 7460 ft | 182 kts | 15° |
| 2026-04-28 11:55 | 26.69730 | 100.25131 | 7985 ft | 185 kts | 13° |
| 2026-04-28 11:56 | 26.70978 | 100.25462 | 8545 ft | 186 kts | 11° |
| 2026-04-28 11:56 | 26.72255 | 100.25784 | 9091 ft | 186 kts | 10° |
| 2026-04-28 11:56 | 26.73506 | 100.26087 | 9432 ft | 185 kts | 11° |
| 2026-04-28 11:56 | 26.74770 | 100.26408 | 9735 ft | 188 kts | 12° |
| 2026-04-28 11:57 | 26.76048 | 100.26751 | 10049 ft | 191 kts | 12° |
| 2026-04-28 11:57 | 26.77358 | 100.27121 | 10379 ft | 193 kts | 12° |
| 2026-04-28 11:57 | 26.78661 | 100.27502 | 10703 ft | 196 kts | 13° |
| 2026-04-28 11:57 | 26.80017 | 100.27904 | 10915 ft | 207 kts | 13° |
| 2026-04-28 11:58 | 26.81448 | 100.28326 | 11130 ft | 218 kts | 12° |
| 2026-04-28 11:58 | 26.82959 | 100.28764 | 11346 ft | 230 kts | 13° |
| 2026-04-28 11:58 | 26.84532 | 100.29433 | 11515 ft | 255 kts | 36° |
| 2026-04-28 11:58 | 26.85628 | 100.31027 | 11805 ft | 274 kts | 71° |
| 2026-04-28 11:59 | 26.85799 | 100.33207 | 12125 ft | 292 kts | 95° |
| 2026-04-28 11:59 | 26.85525 | 100.35509 | 12439 ft | 309 kts | 98° |
| 2026-04-28 11:59 | 26.85222 | 100.37965 | 12741 ft | 326 kts | 97° |
| 2026-04-28 11:59 | 26.84958 | 100.40558 | 13037 ft | 342 kts | 95° |
| 2026-04-28 12:00 | 26.84731 | 100.43256 | 13316 ft | 358 kts | 95° |
| 2026-04-28 12:00 | 26.84523 | 100.46081 | 13581 ft | 374 kts | 94° |
| 2026-04-28 12:00 | 26.84316 | 100.49045 | 13911 ft | 385 kts | 94° |
| 2026-04-28 12:00 | 26.84116 | 100.52059 | 14403 ft | 390 kts | 93° |
| 2026-04-28 12:01 | 26.84042 | 100.55062 | 14927 ft | 392 kts | 89° |
| 2026-04-28 12:01 | 26.84132 | 100.58142 | 15398 ft | 397 kts | 86° |
| 2026-04-28 12:01 | 26.84282 | 100.61225 | 15893 ft | 400 kts | 86° |
| 2026-04-28 12:01 | 26.84439 | 100.64330 | 16359 ft | 404 kts | 86° |
| 2026-04-28 12:02 | 26.84596 | 100.67473 | 16798 ft | 408 kts | 86° |
| 2026-04-28 12:02 | 26.84753 | 100.70650 | 17269 ft | 411 kts | 86° |
| 2026-04-28 12:02 | 26.84908 | 100.73865 | 17735 ft | 413 kts | 86° |
| 2026-04-28 12:02 | 26.85060 | 100.77016 | 18360 ft | 411 kts | 86° |
| 2026-04-28 12:03 | 26.85213 | 100.80212 | 18903 ft | 413 kts | 86° |
| 2026-04-28 12:03 | 26.85365 | 100.83427 | 19379 ft | 415 kts | 86° |
| 2026-04-28 12:03 | 26.85517 | 100.86687 | 19818 ft | 419 kts | 86° |
| 2026-04-28 12:03 | 26.85668 | 100.89944 | 20244 ft | 422 kts | 86° |
| 2026-04-28 12:04 | 26.85822 | 100.93230 | 20700 ft | 424 kts | 85° |
| 2026-04-28 12:04 | 26.86257 | 100.96481 | 21089 ft | 426 kts | 73° |
| 2026-04-28 12:04 | 26.87393 | 100.99540 | 21489 ft | 426 kts | 58° |
| 2026-04-28 12:04 | 26.89113 | 101.02224 | 21905 ft | 425 kts | 48° |
| 2026-04-28 12:05 | 26.91013 | 101.04761 | 22284 ft | 427 kts | 47° |
| 2026-04-28 12:05 | 26.92927 | 101.07281 | 22653 ft | 430 kts | 47° |
| 2026-04-28 12:05 | 26.94883 | 101.09868 | 23014 ft | 434 kts | 48° |
| 2026-04-28 12:05 | 26.96839 | 101.12477 | 23392 ft | 437 kts | 48° |
| 2026-04-28 12:06 | 26.98774 | 101.15075 | 23798 ft | 439 kts | 49° |
| 2026-04-28 12:06 | 27.00727 | 101.17711 | 24202 ft | 442 kts | 49° |
| 2026-04-28 12:06 | 27.02700 | 101.20378 | 24589 ft | 444 kts | 49° |
| 2026-04-28 12:06 | 27.04690 | 101.23071 | 24941 ft | 447 kts | 49° |
| 2026-04-28 12:07 | 27.06659 | 101.25739 | 25293 ft | 451 kts | 49° |
| 2026-04-28 12:07 | 27.08657 | 101.28448 | 25662 ft | 453 kts | 49° |
| 2026-04-28 12:07 | 27.10667 | 101.31175 | 26014 ft | 455 kts | 49° |
| 2026-04-28 12:07 | 27.12700 | 101.33938 | 26382 ft | 457 kts | 49° |
| 2026-04-28 12:08 | 27.14714 | 101.36675 | 26729 ft | 460 kts | 49° |
| 2026-04-28 12:08 | 27.16768 | 101.39471 | 27028 ft | 463 kts | 49° |
| 2026-04-28 12:08 | 27.18809 | 101.42248 | 27349 ft | 465 kts | 49° |
| 2026-04-28 12:08 | 27.20863 | 101.45045 | 27671 ft | 467 kts | 50° |
| 2026-04-28 12:09 | 27.22939 | 101.47849 | 27991 ft | 469 kts | 49° |
| 2026-04-28 12:09 | 27.25069 | 101.50692 | 28309 ft | 471 kts | 49° |
| 2026-04-28 12:09 | 27.27164 | 101.53481 | 28601 ft | 473 kts | 49° |
| 2026-04-28 12:09 | 27.29310 | 101.56334 | 28882 ft | 475 kts | 49° |
| 2026-04-28 12:10 | 27.31435 | 101.59167 | 29201 ft | 476 kts | 49° |
| 2026-04-28 12:10 | 27.33570 | 101.62023 | 29476 ft | 478 kts | 49° |
| 2026-04-28 12:10 | 27.35712 | 101.64890 | 29673 ft | 481 kts | 49° |
| 2026-04-28 12:10 | 27.37849 | 101.67751 | 29931 ft | 482 kts | 50° |
| 2026-04-28 12:11 | 27.40012 | 101.70652 | 30169 ft | 483 kts | 50° |
| 2026-04-28 12:11 | 27.42170 | 101.73547 | 30492 ft | 483 kts | 50° |
| 2026-04-28 12:11 | 27.44325 | 101.76440 | 30846 ft | 481 kts | 50° |
| 2026-04-28 12:11 | 27.46459 | 101.79306 | 31220 ft | 479 kts | 50° |
| 2026-04-28 12:12 | 27.48589 | 101.82172 | 31570 ft | 478 kts | 50° |
| 2026-04-28 12:12 | 27.50715 | 101.85032 | 31893 ft | 477 kts | 50° |
| 2026-04-28 12:12 | 27.52826 | 101.87875 | 32191 ft | 477 kts | 50° |
| 2026-04-28 12:12 | 27.54965 | 101.90755 | 32451 ft | 477 kts | 50° |
| 2026-04-28 12:13 | 27.57089 | 101.93617 | 32740 ft | 476 kts | 50° |
| 2026-04-28 12:13 | 27.59223 | 101.96495 | 33024 ft | 476 kts | 50° |
| 2026-04-28 12:13 | 27.61323 | 101.99329 | 33320 ft | 475 kts | 50° |
| 2026-04-28 12:13 | 27.63448 | 102.02203 | 33590 ft | 475 kts | 50° |
| 2026-04-28 12:14 | 27.65559 | 102.05060 | 33816 ft | 477 kts | 50° |
| 2026-04-28 12:14 | 27.67676 | 102.07926 | 34021 ft | 478 kts | 50° |
| 2026-04-28 12:14 | 27.69802 | 102.10805 | 34211 ft | 479 kts | 50° |
| 2026-04-28 12:14 | 27.71884 | 102.13771 | 34401 ft | 480 kts | 53° |
| 2026-04-28 12:15 | 27.73797 | 102.16829 | 34586 ft | 481 kts | 57° |
| 2026-04-28 12:15 | 27.75570 | 102.20050 | 34750 ft | 483 kts | 60° |
| 2026-04-28 12:15 | 27.77181 | 102.23390 | 34922 ft | 484 kts | 63° |
| 2026-04-28 12:15 | 27.78709 | 102.26748 | 35075 ft | 485 kts | 63° |
| 2026-04-28 12:16 | 27.80243 | 102.30155 | 35245 ft | 486 kts | 63° |
| 2026-04-28 12:16 | 27.81752 | 102.33511 | 35249 ft | 487 kts | 63° |
| 2026-04-28 12:16 | 27.84827 | 102.40335 | 35284 ft | 488 kts | 63° |
| 2026-04-28 12:17 | 27.87905 | 102.47152 | 35292 ft | 488 kts | 63° |
| 2026-04-28 12:17 | 27.90990 | 102.53996 | 35283 ft | 490 kts | 63° |
| 2026-04-28 12:18 | 27.94077 | 102.60849 | 35295 ft | 490 kts | 63° |
| 2026-04-28 12:18 | 27.97163 | 102.67706 | 35301 ft | 489 kts | 63° |
| 2026-04-28 12:19 | 28.00238 | 102.74559 | 35291 ft | 490 kts | 63° |
| 2026-04-28 12:19 | 28.03326 | 102.81445 | 35305 ft | 491 kts | 63° |
| 2026-04-28 12:20 | 28.06394 | 102.88305 | 35302 ft | 491 kts | 63° |
| 2026-04-28 12:20 | 28.09470 | 102.95189 | 35311 ft | 492 kts | 63° |
| 2026-04-28 12:21 | 28.12555 | 103.02106 | 35311 ft | 493 kts | 63° |
| 2026-04-28 12:21 | 28.15647 | 103.09051 | 35309 ft | 493 kts | 64° |
| 2026-04-28 12:22 | 28.18719 | 103.15967 | 35302 ft | 492 kts | 63° |
| 2026-04-28 12:22 | 28.21771 | 103.22844 | 35330 ft | 492 kts | 63° |
| 2026-04-28 12:23 | 28.24841 | 103.29778 | 35380 ft | 492 kts | 64° |
| 2026-04-28 12:23 | 28.27912 | 103.36727 | 35322 ft | 493 kts | 64° |
| 2026-04-28 12:24 | 28.30975 | 103.43667 | 35293 ft | 492 kts | 64° |
| 2026-04-28 12:24 | 28.34029 | 103.50599 | 35284 ft | 493 kts | 64° |
| 2026-04-28 12:25 | 28.37080 | 103.57544 | 35271 ft | 493 kts | 64° |
| 2026-04-28 12:25 | 28.40140 | 103.64512 | 35255 ft | 493 kts | 64° |
| 2026-04-28 12:26 | 28.43196 | 103.71460 | 35243 ft | 494 kts | 64° |
| 2026-04-28 12:26 | 28.46249 | 103.78416 | 35228 ft | 493 kts | 64° |
| 2026-04-28 12:27 | 28.49308 | 103.85411 | 35219 ft | 493 kts | 64° |
| 2026-04-28 12:27 | 28.52344 | 103.92367 | 35229 ft | 494 kts | 64° |
| 2026-04-28 12:28 | 28.55373 | 103.99315 | 35214 ft | 493 kts | 65° |
| 2026-04-28 12:28 | 28.58424 | 104.06325 | 35195 ft | 495 kts | 65° |
| 2026-04-28 12:29 | 28.62987 | 104.16821 | 35200 ft | 495 kts | 64° |
| 2026-04-28 12:30 | 28.67005 | 104.23108 | 35184 ft | 495 kts | 43° |
| 2026-04-28 12:30 | 28.69683 | 104.25507 | 35183 ft | 493 kts | 31° |
| 2026-04-28 12:30 | 28.72708 | 104.27313 | 35187 ft | 492 kts | 20° |
| 2026-04-28 12:30 | 28.75993 | 104.28471 | 35184 ft | 490 kts | 9° |
| 2026-04-28 12:31 | 28.79340 | 104.28925 | 35182 ft | 486 kts | 358° |
| 2026-04-28 12:31 | 28.86086 | 104.28603 | 35171 ft | 485 kts | 353° |
| 2026-04-28 12:32 | 28.92853 | 104.28136 | 35169 ft | 486 kts | 353° |
| 2026-04-28 12:32 | 28.99606 | 104.27729 | 35164 ft | 486 kts | 354° |
| 2026-04-28 12:33 | 29.06368 | 104.27351 | 35159 ft | 487 kts | 354° |
| 2026-04-28 12:33 | 29.13123 | 104.26979 | 35160 ft | 488 kts | 354° |
| 2026-04-28 12:34 | 29.19908 | 104.26441 | 35157 ft | 486 kts | 348° |
| 2026-04-28 12:34 | 29.26486 | 104.24712 | 35166 ft | 480 kts | 338° |
| 2026-04-28 12:35 | 29.32546 | 104.21691 | 35162 ft | 476 kts | 327° |
| 2026-04-28 12:35 | 29.38080 | 104.17579 | 35164 ft | 472 kts | 320° |
| 2026-04-28 12:36 | 29.43441 | 104.13212 | 35164 ft | 474 kts | 320° |
| 2026-04-28 12:36 | 29.48806 | 104.08854 | 35166 ft | 474 kts | 320° |
| 2026-04-28 12:37 | 29.54218 | 104.04481 | 35168 ft | 476 kts | 320° |
| 2026-04-28 12:37 | 29.59632 | 104.00105 | 35172 ft | 476 kts | 320° |
| 2026-04-28 12:38 | 29.65051 | 103.95722 | 35172 ft | 476 kts | 320° |
| 2026-04-28 12:38 | 29.70469 | 103.91331 | 35132 ft | 477 kts | 320° |
| 2026-04-28 12:38 | 29.73156 | 103.89150 | 34586 ft | 476 kts | 320° |
| 2026-04-28 12:39 | 29.75877 | 103.86943 | 33802 ft | 474 kts | 320° |
| 2026-04-28 12:39 | 29.78556 | 103.84769 | 33012 ft | 472 kts | 320° |
| 2026-04-28 12:39 | 29.81213 | 103.82613 | 32330 ft | 470 kts | 320° |
| 2026-04-28 12:39 | 29.83894 | 103.80432 | 31551 ft | 469 kts | 321° |
| 2026-04-28 12:40 | 29.86531 | 103.78286 | 30728 ft | 469 kts | 321° |
| 2026-04-28 12:40 | 29.89204 | 103.76109 | 29850 ft | 469 kts | 321° |
| 2026-04-28 12:40 | 29.91818 | 103.73981 | 29171 ft | 463 kts | 320° |
| 2026-04-28 12:40 | 29.94425 | 103.71854 | 28659 ft | 455 kts | 321° |
| 2026-04-28 12:41 | 29.96984 | 103.69765 | 28134 ft | 448 kts | 321° |
| 2026-04-28 12:41 | 29.99515 | 103.67695 | 27600 ft | 442 kts | 321° |
| 2026-04-28 12:41 | 30.02029 | 103.65642 | 27060 ft | 436 kts | 321° |
| 2026-04-28 12:41 | 30.04479 | 103.63638 | 26525 ft | 430 kts | 322° |
| 2026-04-28 12:42 | 30.07056 | 103.61932 | 25955 ft | 432 kts | 336° |
| 2026-04-28 12:42 | 30.09991 | 103.61202 | 25417 ft | 434 kts | 354° |
| 2026-04-28 12:42 | 30.12991 | 103.61540 | 24874 ft | 435 kts | 12° |
| 2026-04-28 12:42 | 30.15830 | 103.62731 | 24370 ft | 433 kts | 20° |
| 2026-04-28 12:43 | 30.18579 | 103.64043 | 23849 ft | 428 kts | 20° |
| 2026-04-28 12:43 | 30.21358 | 103.65373 | 23334 ft | 424 kts | 20° |
| 2026-04-28 12:43 | 30.24058 | 103.66653 | 22828 ft | 420 kts | 20° |
| 2026-04-28 12:43 | 30.26743 | 103.67911 | 22335 ft | 416 kts | 19° |
| 2026-04-28 12:44 | 30.29426 | 103.69159 | 21832 ft | 412 kts | 20° |
| 2026-04-28 12:44 | 30.32063 | 103.70378 | 21319 ft | 409 kts | 19° |
| 2026-04-28 12:44 | 30.34691 | 103.71588 | 20795 ft | 405 kts | 20° |
| 2026-04-28 12:44 | 30.37311 | 103.72795 | 20280 ft | 401 kts | 19° |
| 2026-04-28 12:45 | 30.39865 | 103.73972 | 19750 ft | 397 kts | 20° |
| 2026-04-28 12:45 | 30.42431 | 103.75156 | 19216 ft | 393 kts | 20° |
| 2026-04-28 12:45 | 30.44940 | 103.76313 | 18678 ft | 389 kts | 20° |
| 2026-04-28 12:45 | 30.47456 | 103.77477 | 18171 ft | 385 kts | 20° |
| 2026-04-28 12:46 | 30.49929 | 103.78621 | 17642 ft | 381 kts | 20° |
| 2026-04-28 12:46 | 30.52388 | 103.79760 | 17128 ft | 378 kts | 20° |
| 2026-04-28 12:46 | 30.54800 | 103.80878 | 16594 ft | 374 kts | 20° |
| 2026-04-28 12:46 | 30.57208 | 103.81995 | 16044 ft | 372 kts | 20° |
| 2026-04-28 12:47 | 30.59615 | 103.83110 | 15511 ft | 369 kts | 20° |
| 2026-04-28 12:47 | 30.61980 | 103.84207 | 14976 ft | 366 kts | 20° |
| 2026-04-28 12:47 | 30.64326 | 103.85297 | 14633 ft | 358 kts | 21° |
| 2026-04-28 12:47 | 30.66606 | 103.86363 | 14379 ft | 347 kts | 21° |
| 2026-04-28 12:48 | 30.68805 | 103.87395 | 14144 ft | 335 kts | 21° |
| 2026-04-28 12:48 | 30.70912 | 103.88381 | 13937 ft | 324 kts | 21° |
| 2026-04-28 12:48 | 30.72961 | 103.89340 | 13812 ft | 311 kts | 21° |
| 2026-04-28 12:48 | 30.74949 | 103.90273 | 13656 ft | 300 kts | 21° |
| 2026-04-28 12:49 | 30.76838 | 103.91157 | 13534 ft | 289 kts | 20° |
| 2026-04-28 12:49 | 30.78668 | 103.92013 | 13336 ft | 279 kts | 21° |
| 2026-04-28 12:49 | 30.80446 | 103.92846 | 13298 ft | 266 kts | 21° |
| 2026-04-28 12:49 | 30.82114 | 103.93630 | 13188 ft | 257 kts | 20° |
| 2026-04-28 12:50 | 30.83742 | 103.94393 | 13010 ft | 249 kts | 21° |
| 2026-04-28 12:50 | 30.85331 | 103.95135 | 12772 ft | 247 kts | 21° |
| 2026-04-28 12:50 | 30.87025 | 103.95926 | 12504 ft | 275 kts | 21° |
| 2026-04-28 12:50 | 30.88843 | 103.96773 | 12135 ft | 280 kts | 21° |
| 2026-04-28 12:51 | 30.90631 | 103.97610 | 11772 ft | 278 kts | 22° |
| 2026-04-28 12:51 | 30.92437 | 103.98458 | 11450 ft | 276 kts | 22° |
| 2026-04-28 12:51 | 30.94201 | 103.99286 | 11110 ft | 273 kts | 22° |
| 2026-04-28 12:51 | 30.95941 | 104.00101 | 10787 ft | 268 kts | 24° |
| 2026-04-28 12:52 | 30.97660 | 104.00909 | 10443 ft | 264 kts | 23° |
| 2026-04-28 12:52 | 30.99280 | 104.01850 | 10173 ft | 259 kts | 39° |
| 2026-04-28 12:52 | 31.00269 | 104.03590 | 9928 ft | 262 kts | 73° |
| 2026-04-28 12:52 | 31.00191 | 104.05687 | 9661 ft | 272 kts | 105° |
| 2026-04-28 12:53 | 30.99171 | 104.07597 | 9250 ft | 279 kts | 121° |
| 2026-04-28 12:53 | 30.98083 | 104.09451 | 8911 ft | 274 kts | 115° |
| 2026-04-28 12:53 | 30.97154 | 104.11366 | 8474 ft | 274 kts | 116° |
| 2026-04-28 12:53 | 30.95777 | 104.12949 | 8045 ft | 287 kts | 148° |
| 2026-04-28 12:54 | 30.93819 | 104.13436 | 7708 ft | 296 kts | 182° |
| 2026-04-28 12:54 | 30.91902 | 104.12640 | 7383 ft | 298 kts | 216° |
| 2026-04-28 12:54 | 30.90381 | 104.11008 | 7093 ft | 293 kts | 223° |
| 2026-04-28 12:54 | 30.88865 | 104.09471 | 6806 ft | 288 kts | 214° |
| 2026-04-28 12:55 | 30.87148 | 104.08330 | 6519 ft | 282 kts | 202° |
| 2026-04-28 12:55 | 30.85352 | 104.07442 | 6239 ft | 277 kts | 199° |
| 2026-04-28 12:55 | 30.83596 | 104.06646 | 5832 ft | 270 kts | 199° |
| 2026-04-28 12:55 | 30.81861 | 104.05866 | 5374 ft | 266 kts | 200° |
| 2026-04-28 12:56 | 30.80138 | 104.05080 | 5055 ft | 261 kts | 200° |
| 2026-04-28 12:56 | 30.78494 | 104.04321 | 4835 ft | 247 kts | 201° |
| 2026-04-28 12:56 | 30.76990 | 104.03621 | 4819 ft | 232 kts | 201° |
| 2026-04-28 12:56 | 30.75540 | 104.02944 | 4810 ft | 217 kts | 201° |
| 2026-04-28 12:57 | 30.74189 | 104.02312 | 4789 ft | 206 kts | 201° |
| 2026-04-28 12:57 | 30.72869 | 104.01697 | 4498 ft | 201 kts | 201° |
| 2026-04-28 12:57 | 30.71576 | 104.01095 | 4218 ft | 199 kts | 202° |
| 2026-04-28 12:57 | 30.70315 | 104.00507 | 3944 ft | 191 kts | 202° |
| 2026-04-28 12:58 | 30.69111 | 103.99947 | 3715 ft | 178 kts | 202° |
| 2026-04-28 12:58 | 30.67975 | 103.99419 | 3472 ft | 174 kts | 203° |
| 2026-04-28 12:58 | 30.66873 | 103.98905 | 3236 ft | 166 kts | 203° |
| 2026-04-28 12:58 | 30.65844 | 103.98428 | 3011 ft | 152 kts | 203° |
| 2026-04-28 12:59 | 30.64902 | 103.97989 | 2813 ft | 140 kts | 204° |
| 2026-04-28 12:59 | 30.64003 | 103.97570 | 2652 ft | 139 kts | 204° |
| 2026-04-28 12:59 | 30.63100 | 103.97148 | 2478 ft | 138 kts | 205° |
| 2026-04-28 12:59 | 30.62213 | 103.96733 | 2302 ft | 137 kts | 205° |
| 2026-04-28 13:00 | 30.61337 | 103.96323 | 2116 ft | 135 kts | 204° |
| 2026-04-28 13:00 | 30.60454 | 103.95912 | 1943 ft | 136 kts | 205° |
| 2026-04-28 13:00 | 30.59569 | 103.95503 | 1769 ft | 137 kts | 205° |
| 2026-04-28 13:00 | 30.58711 | 103.95103 | 1690 ft | 119 kts | 205° |
| 2026-04-28 13:01 | 30.58102 | 103.94807 | 1690 ft | 69 kts | 202° |
| 2026-04-28 13:01 | 30.57732 | 103.94643 | 1690 ft | 48 kts | 202° |
| 2026-04-28 13:01 | 30.57454 | 103.94607 | 1690 ft | 37 kts | 171° |
| 2026-04-28 13:01 | 30.57313 | 103.94730 | 1690 ft | 24 kts | 108° |
| 2026-04-28 13:02 | 30.57253 | 103.94907 | 1690 ft | 23 kts | 112° |
| 2026-04-28 13:02 | 30.57212 | 103.95040 | 1690 ft | 10 kts | 83° |
| 2026-04-28 13:02 | 30.57234 | 103.95068 | 1689 ft | 2 kts | 15° |
| 2026-04-28 13:02 | 30.57257 | 103.95077 | 1690 ft | 3 kts | 22° |
| 2026-04-28 13:03 | 30.57264 | 103.95081 | 1690 ft | 0 kts | 21° |